Time;durP1;ratioP1;P1;durP2;ratioP2;P2;SDS_P1;SDS_P2;PMS_P1;PMS_P2;Temp;Humidity;BMP_temperature;BMP_pressure;BME280_temperature;BME280_humidity;BME280_pressure;Samples;Min_cycle;Max_cycle;Signal;HPM_P1;HPM_P2
2023/08/16 00:02:48;;;;;;;17.20;12.73;;;;;;;18.32;93.32;97958.84;6241649;28;20266;-52
2023/08/16 00:05:50;;;;;;;16.27;12.63;;;;;;;18.50;93.35;97982.41;6240521;28;20261;-54
2023/08/16 00:08:57;;;;;;;16.30;12.83;;;;;;;18.49;93.58;97980.81;6239180;28;20250;-53
2023/08/16 00:12:02;;;;;;;11.90;9.93;;;;;;;18.33;93.76;97962.38;6231904;28;20231;-50
2023/08/16 00:15:06;;;;;;;10.97;8.90;;;;;;;18.43;93.99;97981.16;6225561;28;20218;-52
2023/08/16 00:18:09;;;;;;;7.47;6.17;;;;;;;18.36;94.24;97973.38;6230322;28;20239;-54
2023/08/16 00:21:11;;;;;;;7.40;6.70;;;;;;;18.34;94.96;97969.38;6241684;28;20301;-54
2023/08/16 00:24:13;;;;;;;6.87;6.27;;;;;;;18.35;94.51;97973.66;6223192;28;20224;-59
2023/08/16 00:27:15;;;;;;;6.93;6.33;;;;;;;18.36;95.00;97975.28;6249781;28;20216;-53
2023/08/16 00:30:21;;;;;;;7.83;7.03;;;;;;;18.36;94.95;97976.06;6257052;28;20362;-55
2023/08/16 00:33:29;;;;;;;8.00;7.20;;;;;;;18.38;95.78;97981.22;6237987;28;20219;-52
2023/08/16 00:36:33;;;;;;;9.70;8.70;;;;;;;18.40;95.71;97979.03;6250472;28;20227;-54
2023/08/16 00:39:39;;;;;;;7.30;6.60;;;;;;;18.42;95.71;97987.63;6229248;28;20223;-52
2023/08/16 00:42:42;;;;;;;11.17;9.33;;;;;;;18.43;95.58;97992.75;6229975;28;20215;-49
2023/08/16 00:45:46;;;;;;;10.63;9.10;;;;;;;18.43;95.99;97995.44;6228661;28;20277;-53
2023/08/16 00:48:49;;;;;;;9.27;8.37;;;;;;;18.42;95.86;97996.53;6244438;28;20232;-52
2023/08/16 00:51:54;;;;;;;16.10;13.60;;;;;;;18.39;96.42;98002.50;6237703;28;20231;-52
2023/08/16 00:54:56;;;;;;;11.03;8.83;;;;;;;18.29;97.53;97994.50;6246624;28;20701;-54
2023/08/16 00:57:59;;;;;;;10.10;8.20;;;;;;;18.30;97.31;98006.88;6243329;28;20238;-53
2023/08/16 01:01:02;;;;;;;10.27;8.20;;;;;;;18.25;97.57;97996.94;6245236;28;20238;-54
2023/08/16 01:04:05;;;;;;;7.27;6.60;;;;;;;18.23;98.21;97993.75;6243710;28;20232;-53
2023/08/16 01:07:07;;;;;;;7.27;6.57;;;;;;;18.24;98.35;97995.34;6245516;28;20235;-52
2023/08/16 01:10:10;;;;;;;7.87;6.40;;;;;;;18.23;98.49;97984.84;6251032;28;20795;-52
2023/08/16 01:13:22;;;;;;;7.77;6.00;;;;;;;18.22;98.29;97980.53;6248530;28;20248;-54
2023/08/16 01:16:30;;;;;;;6.90;6.30;;;;;;;18.20;98.51;97974.63;6242937;28;20233;-53
2023/08/16 01:19:36;;;;;;;6.47;5.87;;;;;;;18.22;98.86;97975.94;6239726;28;20227;-52
2023/08/16 01:23:07;;;;;;;5.77;5.03;;;;;;;18.21;98.55;97987.00;6225120;28;20373;-54
2023/08/16 01:26:26;;;;;;;6.10;5.30;;;;;;;18.17;98.83;97989.47;6216935;28;20346;-54
2023/08/16 01:29:31;;;;;;;6.87;6.17;;;;;;;18.14;99.03;97981.97;6249977;28;20235;-54
2023/08/16 01:32:34;;;;;;;7.00;6.40;;;;;;;18.12;99.70;97988.72;6251623;28;20239;-54
2023/08/16 01:35:40;;;;;;;7.60;6.40;;;;;;;18.10;99.78;97989.00;6244432;28;20570;-51
2023/08/16 01:38:43;;;;;;;6.43;5.83;;;;;;;18.06;99.30;97993.34;6241659;28;20373;-54
2023/08/16 01:41:55;;;;;;;6.40;5.83;;;;;;;18.01;99.70;97993.38;6242722;28;20239;-54
2023/08/16 01:44:59;;;;;;;6.97;5.87;;;;;;;17.95;100.00;97983.72;6225278;28;20305;-54
2023/08/16 01:48:03;;;;;;;6.73;5.57;;;;;;;17.89;100.00;97988.38;6226004;28;20363;-52
2023/08/16 01:51:06;;;;;;;6.43;5.83;;;;;;;17.75;100.00;97972.03;6224793;28;20218;-51
2023/08/16 01:54:10;;;;;;;7.07;6.37;;;;;;;17.79;100.00;97986.56;6242757;28;20349;-51
2023/08/16 01:57:13;;;;;;;5.83;5.27;;;;;;;17.75;100.00;97985.50;6226430;28;20303;-52
2023/08/16 02:00:15;;;;;;;6.07;5.57;;;;;;;17.73;100.00;97984.97;6245465;28;20293;-50
2023/08/16 02:03:18;;;;;;;6.30;5.73;;;;;;;17.61;100.00;97970.22;6243308;28;20695;-51
2023/08/16 02:06:22;;;;;;;6.27;5.67;;;;;;;17.69;100.00;97983.09;6239989;28;20317;-53
2023/08/16 02:09:25;;;;;;;5.93;5.43;;;;;;;17.66;100.00;97983.66;6240942;28;20239;-53
2023/08/16 02:12:28;;;;;;;6.63;6.03;;;;;;;17.60;100.00;97982.88;6242083;28;20779;-53
2023/08/16 02:15:31;;;;;;;6.90;5.93;;;;;;;17.54;100.00;97975.94;6249132;28;20207;-54
2023/08/16 02:18:33;;;;;;;6.07;5.57;;;;;;;17.50;100.00;97980.25;6236819;28;20223;-50
2023/08/16 02:21:36;;;;;;;9.50;5.77;;;;;;;17.46;100.00;97974.63;6245518;28;20231;-53
2023/08/16 02:24:38;;;;;;;5.83;5.33;;;;;;;17.35;100.00;97959.59;6248179;28;20231;-53
2023/08/16 02:27:41;;;;;;;5.93;5.33;;;;;;;17.41;100.00;97973.84;6240215;28;20223;-51
2023/08/16 02:30:43;;;;;;;6.40;5.80;;;;;;;17.40;100.00;97969.53;6249619;28;20239;-52
2023/08/16 02:33:45;;;;;;;7.67;5.33;;;;;;;17.39;100.00;97970.59;6221222;28;20230;-48
2023/08/16 02:36:48;;;;;;;6.30;5.70;;;;;;;17.36;100.00;97965.78;6224938;28;20227;-48
2023/08/16 02:39:50;;;;;;;6.73;6.13;;;;;;;17.31;100.00;97971.22;6237755;28;20231;-53
2023/08/16 02:42:52;;;;;;;6.83;6.27;;;;;;;17.24;100.00;97972.31;6241178;28;20227;-54
2023/08/16 02:45:55;;;;;;;6.53;5.73;;;;;;;17.22;100.00;97965.59;6230029;28;20248;-51
2023/08/16 02:48:57;;;;;;;7.10;6.07;;;;;;;17.19;100.00;97974.22;6221099;28;20238;-52
2023/08/16 02:51:59;;;;;;;6.43;5.83;;;;;;;17.18;100.00;97978.00;6240715;28;20238;-51
2023/08/16 02:55:02;;;;;;;6.70;6.00;;;;;;;17.15;100.00;97983.97;6239944;28;20227;-54
2023/08/16 02:58:04;;;;;;;6.47;5.87;;;;;;;17.13;100.00;97978.03;6240139;28;20246;-49
2023/08/16 03:01:06;;;;;;;6.63;6.03;;;;;;;17.11;100.00;97980.19;6226556;28;20309;-50
2023/08/16 03:04:10;;;;;;;8.87;6.37;;;;;;;17.08;100.00;97989.63;6239819;28;20227;-50
2023/08/16 03:07:12;;;;;;;6.17;5.63;;;;;;;17.03;100.00;97993.13;6240893;28;20239;-49
2023/08/16 03:10:15;;;;;;;6.40;5.80;;;;;;;16.99;100.00;97986.72;6241567;28;20357;-50
2023/08/16 03:13:17;;;;;;;7.10;6.40;;;;;;;17.03;100.00;97990.44;6224604;28;20725;-54
2023/08/16 03:16:20;;;;;;;6.77;6.10;;;;;;;17.02;100.00;97991.53;6223414;28;20315;-53
2023/08/16 03:19:25;;;;;;;6.67;5.77;;;;;;;17.01;100.00;97991.81;6240084;28;20262;-54
2023/08/16 03:22:27;;;;;;;6.57;5.93;;;;;;;17.02;100.00;97998.81;6235341;28;20350;-50
2023/08/16 03:25:30;;;;;;;6.53;5.83;;;;;;;17.04;100.00;97999.31;6222517;28;20253;-54
2023/08/16 03:28:32;;;;;;;6.43;5.93;;;;;;;17.01;100.00;97995.31;6221029;28;20292;-53
2023/08/16 03:31:37;;;;;;;6.47;5.97;;;;;;;17.01;100.00;98000.69;6233356;28;20227;-53
2023/08/16 03:34:42;;;;;;;6.03;5.50;;;;;;;17.02;100.00;98007.69;6225709;28;20227;-53
2023/08/16 03:37:44;;;;;;;7.07;5.60;;;;;;;17.01;100.00;98011.47;6239107;28;20234;-54
2023/08/16 03:40:46;;;;;;;5.90;5.40;;;;;;;17.03;100.00;98020.06;6239594;28;20231;-54
2023/08/16 03:43:49;;;;;;;6.10;5.57;;;;;;;16.99;100.00;98020.88;6225267;28;20227;-54
2023/08/16 03:46:51;;;;;;;6.43;5.73;;;;;;;16.99;100.00;98023.56;6242247;28;20223;-54
2023/08/16 03:49:54;;;;;;;6.53;5.93;;;;;;;16.92;100.00;98026.56;6220653;28;20258;-53
2023/08/16 03:52:56;;;;;;;6.60;5.87;;;;;;;16.88;100.00;98027.38;6236826;28;20235;-51
2023/08/16 03:55:58;;;;;;;7.00;6.30;;;;;;;16.86;100.00;98029.56;6222318;28;20239;-54
2023/08/16 03:59:01;;;;;;;6.60;6.00;;;;;;;16.84;100.00;98029.81;6240790;28;20227;-52
2023/08/16 04:02:03;;;;;;;7.13;6.27;;;;;;;16.85;100.00;98030.63;6243841;28;20235;-53
2023/08/16 04:05:12;;;;;;;6.50;5.90;;;;;;;16.75;100.00;98020.72;6237017;28;20238;-53
2023/08/16 04:08:14;;;;;;;7.27;5.90;;;;;;;16.82;100.00;98039.25;6240649;28;20739;-53
2023/08/16 04:11:17;;;;;;;7.20;6.50;;;;;;;16.77;100.00;98038.19;6240246;28;20227;-53
2023/08/16 04:14:19;;;;;;;6.73;6.10;;;;;;;16.77;100.00;98040.06;6236109;28;20231;-54
2023/08/16 04:17:21;;;;;;;6.80;6.23;;;;;;;16.76;100.00;98039.25;6244673;28;20329;-52
2023/08/16 04:20:24;;;;;;;6.67;6.07;;;;;;;16.80;100.00;98044.06;6223445;28;20318;-50
2023/08/16 04:23:28;;;;;;;6.63;6.00;;;;;;;16.84;100.00;98047.84;6239313;28;20242;-54
2023/08/16 04:26:30;;;;;;;7.20;6.40;;;;;;;16.85;100.00;98050.28;6239912;28;20238;-52
2023/08/16 04:29:32;;;;;;;6.73;6.07;;;;;;;16.89;100.00;98048.63;6236984;28;20235;-51
2023/08/16 04:32:35;;;;;;;6.53;5.93;;;;;;;16.77;100.00;98027.41;6245529;28;20236;-53
2023/08/16 04:35:37;;;;;;;7.53;5.73;;;;;;;17.00;100.00;98054.81;6237179;28;20315;-53
2023/08/16 04:38:40;;;;;;;6.40;5.90;;;;;;;17.04;100.00;98047.78;6219714;28;20224;-52
2023/08/16 04:41:43;;;;;;;6.13;5.53;;;;;;;16.94;100.00;98029.78;6222904;28;20245;-54
2023/08/16 04:44:45;;;;;;;6.07;5.03;;;;;;;17.17;100.00;98052.56;6222925;28;20314;-54
2023/08/16 04:47:48;;;;;;;6.00;5.40;;;;;;;17.25;100.00;98057.41;6222905;28;20228;-54
2023/08/16 04:50:52;;;;;;;6.60;5.50;;;;;;;17.33;100.00;98060.59;6218059;28;20788;-51
2023/08/16 04:53:54;;;;;;;6.67;6.07;;;;;;;17.27;100.00;98046.34;6241526;28;20750;-54
2023/08/16 04:56:58;;;;;;;5.87;5.27;;;;;;;17.48;100.00;98068.59;6238751;28;20231;-51
2023/08/16 05:00:07;;;;;;;5.80;5.20;;;;;;;17.57;100.00;98068.84;6218855;28;20232;-56
2023/08/16 05:03:15;;;;;;;6.67;5.60;;;;;;;17.65;100.00;98062.88;6242082;28;20214;-55
2023/08/16 05:06:18;;;;;;;5.73;5.13;;;;;;;17.64;100.00;98055.88;6233217;28;20218;-54
2023/08/16 05:09:23;;;;;;;7.60;5.60;;;;;;;17.79;100.00;98072.78;6237116;28;20730;-54
2023/08/16 05:12:25;;;;;;;6.10;5.50;;;;;;;17.85;100.00;98075.44;6241451;28;20220;-54
2023/08/16 05:15:27;;;;;;;6.63;6.03;;;;;;;17.75;100.00;98060.94;6239390;28;20251;-54
2023/08/16 05:18:29;;;;;;;5.87;5.30;;;;;;;17.98;100.00;98078.34;6206861;28;20219;-54
2023/08/16 05:21:38;;;;;;;7.10;5.93;;;;;;;18.06;100.00;98076.91;6226225;28;20239;-52
2023/08/16 05:24:44;;;;;;;5.47;5.00;;;;;;;18.11;100.00;98082.28;6239348;28;20232;-52
2023/08/16 05:27:47;;;;;;;5.57;5.07;;;;;;;18.10;100.00;98074.47;6242522;28;20250;-52
2023/08/16 05:30:49;;;;;;;5.47;4.97;;;;;;;18.16;100.00;98084.13;6242633;28;20384;-54
2023/08/16 05:33:51;;;;;;;5.33;4.73;;;;;;;18.20;100.00;98086.00;6240831;28;20231;-52
2023/08/16 05:36:55;;;;;;;5.97;5.27;;;;;;;18.24;100.00;98089.75;6225370;28;20240;-54
2023/08/16 05:39:58;;;;;;;6.00;5.43;;;;;;;18.17;100.00;98064.97;6242646;28;20270;-54
2023/08/16 05:43:01;;;;;;;4.97;4.57;;;;;;;18.38;100.00;98084.50;6246830;28;20589;-54
2023/08/16 05:46:04;;;;;;;5.43;5.03;;;;;;;18.48;100.00;98097.13;6222761;28;20238;-54
2023/08/16 05:49:06;;;;;;;5.83;5.33;;;;;;;18.57;100.00;98095.41;6242722;28;20231;-54
2023/08/16 05:52:08;;;;;;;6.77;5.80;;;;;;;18.63;100.00;98091.59;6239370;28;20235;-49
2023/08/16 05:55:11;;;;;;;6.50;5.90;;;;;;;18.59;100.00;98074.34;6243077;28;20234;-53
2023/08/16 05:58:14;;;;;;;5.70;5.20;;;;;;;18.70;100.00;98081.28;6240436;28;20234;-55
2023/08/16 06:01:17;;;;;;;5.10;4.70;;;;;;;18.79;100.00;98090.38;6241936;28;20784;-54
2023/08/16 06:04:20;;;;;;;10.43;7.80;;;;;;;18.71;100.00;98061.28;6250350;28;20232;-52
2023/08/16 06:07:22;;;;;;;12.87;10.23;;;;;;;18.85;100.00;98084.91;6225171;28;20731;-52
2023/08/16 06:10:38;;;;;;;7.57;6.70;;;;;;;18.93;100.00;98087.00;6233866;28;20578;-55
2023/08/16 06:13:51;;;;;;;6.50;5.90;;;;;;;18.93;100.00;98078.91;6240358;28;20231;-52
2023/08/16 06:17:03;;;;;;;5.77;5.17;;;;;;;18.97;100.00;98088.84;6234302;28;20243;-50
2023/08/16 06:20:12;;;;;;;6.83;6.10;;;;;;;18.94;100.00;98069.72;6248395;28;20776;-55
2023/08/16 06:23:23;;;;;;;6.20;5.60;;;;;;;19.02;100.00;98083.41;6222684;28;20211;-52
2023/08/16 06:26:31;;;;;;;6.60;5.47;;;;;;;19.05;100.00;98087.41;6243912;28;20705;-55
2023/08/16 06:29:50;;;;;;;5.57;5.07;;;;;;;19.06;100.00;98081.72;6244974;28;20235;-54
2023/08/16 06:33:05;;;;;;;5.30;4.80;;;;;;;18.99;100.00;98059.66;6222190;28;20235;-50
2023/08/16 06:36:19;;;;;;;5.47;4.97;;;;;;;19.13;100.00;98070.59;6237147;28;20254;-55
2023/08/16 06:39:44;;;;;;;10.40;7.73;;;;;;;19.15;100.00;98065.69;6239621;28;20227;-54
2023/08/16 06:42:52;;;;;;;12.63;8.67;;;;;;;19.16;100.00;98074.59;6197096;28;20233;-54
2023/08/16 06:45:58;;;;;;;8.77;7.03;;;;;;;19.07;100.00;98056.34;6233971;28;20235;-56
2023/08/16 06:49:03;;;;;;;6.10;5.50;;;;;;;19.26;100.00;98080.69;6221976;28;20369;-56
2023/08/16 06:52:11;;;;;;;5.07;4.20;;;;;;;19.30;100.00;98062.78;6245102;28;20235;-56
2023/08/16 06:55:14;;;;;;;5.57;4.80;;;;;;;19.57;100.00;98074.91;6241471;28;20764;-57
2023/08/16 06:58:23;;;;;;;4.77;4.37;;;;;;;19.83;100.00;98078.09;6239465;28;20234;-57
2023/08/16 07:01:52;;;;;;;4.53;4.20;;;;;;;20.13;100.00;98071.44;6204781;28;20632;-57
2023/08/16 07:05:01;;;;;;;3.77;3.43;;;;;;;20.45;100.00;98073.34;6243991;28;20240;-55
2023/08/16 07:08:10;;;;;;;5.00;4.17;;;;;;;20.74;100.00;98070.47;6244395;28;20243;-57
2023/08/16 07:11:28;;;;;;;3.90;3.57;;;;;;;20.93;100.00;98062.22;6234682;28;20574;-56
2023/08/16 07:14:56;;;;;;;5.30;4.17;;;;;;;21.26;98.11;98071.06;6244671;28;20239;-52
2023/08/16 07:18:01;;;;;;;3.87;3.57;;;;;;;21.46;97.12;98074.50;6241368;28;20239;-47
2023/08/16 07:21:03;;;;;;;3.93;3.50;;;;;;;21.60;96.38;98083.44;6241493;28;20711;-56
2023/08/16 07:24:07;;;;;;;4.47;3.80;;;;;;;21.74;94.97;98080.69;6243498;28;20222;-57
2023/08/16 07:27:10;;;;;;;4.83;3.63;;;;;;;21.89;94.53;98080.34;6244220;28;20223;-57
2023/08/16 07:30:22;;;;;;;4.40;4.00;;;;;;;22.07;92.70;98084.03;6231126;28;20230;-57
2023/08/16 07:33:35;;;;;;;4.23;3.77;;;;;;;22.23;92.31;98079.88;6243473;28;20763;-57
2023/08/16 07:36:37;;;;;;;3.90;3.60;;;;;;;22.37;91.11;98077.09;6237937;28;20231;-57
2023/08/16 07:39:40;;;;;;;4.67;4.27;;;;;;;22.56;87.65;98080.44;6243443;28;20239;-57
2023/08/16 07:42:43;;;;;;;5.37;4.67;;;;;;;22.66;86.33;98068.50;6244880;28;20231;-57
2023/08/16 07:45:51;;;;;;;5.17;4.63;;;;;;;22.87;85.73;98085.06;6224758;28;20748;-57
2023/08/16 07:48:54;;;;;;;4.93;4.37;;;;;;;22.88;84.42;98073.91;6225905;28;20219;-57
2023/08/16 07:51:57;;;;;;;4.70;4.30;;;;;;;23.07;83.87;98087.28;6227589;28;20330;-57
2023/08/16 07:54:59;;;;;;;7.72;5.57;;;;;;;23.23;81.38;98089.56;6226588;28;20231;-58
2023/08/16 07:58:03;;;;;;;5.25;4.72;;;;;;;23.30;80.55;98090.72;6244565;28;20227;-57
2023/08/16 08:01:05;;;;;;;5.35;4.95;;;;;;;23.34;81.13;98091.66;6242568;28;20573;-57
2023/08/16 08:04:08;;;;;;;4.50;4.20;;;;;;;23.36;80.00;98097.63;6243121;28;20235;-58
2023/08/16 08:07:11;;;;;;;5.47;5.00;;;;;;;23.44;80.27;98098.75;6222526;28;20219;-57
2023/08/16 08:14:02;;;;;;;4.78;4.45;;;;;;;23.59;79.28;98102.94;6207392;28;20225;-43
2023/08/16 08:17:04;;;;;;;6.07;5.15;;;;;;;23.59;76.65;98087.41;6182522;28;20228;-42
2023/08/16 08:20:08;;;;;;;5.68;5.18;;;;;;;23.76;76.91;98100.31;6203613;28;20219;-42
2023/08/16 08:23:10;;;;;;;6.18;5.30;;;;;;;23.77;74.85;98085.56;6203028;28;20709;-42
2023/08/16 08:26:13;;;;;;;6.20;5.60;;;;;;;23.95;73.91;98094.56;6170024;28;20654;-43
2023/08/16 08:29:18;;;;;;;5.90;5.40;;;;;;;24.19;70.87;98080.50;6206823;28;20236;-41
2023/08/16 08:32:21;;;;;;;7.35;6.20;;;;;;;24.52;69.17;98096.34;6200270;28;20810;-44
2023/08/16 08:35:24;;;;;;;5.50;5.10;;;;;;;24.54;70.29;98105.00;6199871;28;20744;-45
2023/08/16 08:38:27;;;;;;;7.32;5.13;;;;;;;24.55;72.05;98101.94;6202040;28;20872;-43
2023/08/16 08:41:32;;;;;;;6.95;5.20;;;;;;;24.57;71.56;98107.06;6204160;28;20799;-43
2023/08/16 08:44:50;;;;;;;7.38;5.50;;;;;;;24.68;71.81;98108.34;6177042;28;20228;-44
2023/08/16 08:47:57;;;;;;;6.10;5.50;;;;;;;24.72;72.70;98112.00;6187918;28;20812;-43
2023/08/16 08:51:01;;;;;;;6.82;5.93;;;;;;;24.68;71.81;98108.34;6206808;28;20240;-42
2023/08/16 08:54:04;;;;;;;6.35;5.75;;;;;;;24.77;71.89;98111.03;6207211;28;20232;-42
2023/08/16 08:57:08;;;;;;;8.05;6.28;;;;;;;24.83;68.74;98104.31;6186658;28;20580;-42
2023/08/16 09:00:14;;;;;;;6.78;5.88;;;;;;;24.90;70.68;98110.03;6207117;28;20224;-43
2023/08/16 09:03:18;;;;;;;7.03;6.10;;;;;;;24.90;67.86;98105.38;6206621;28;20759;-42
2023/08/16 09:06:21;;;;;;;10.95;5.82;;;;;;;25.11;64.07;98107.44;6214778;28;20804;-41
2023/08/16 09:09:23;;;;;;;7.47;6.15;;;;;;;25.19;63.05;98099.22;6211189;28;20228;-44
2023/08/16 09:12:25;;;;;;;6.63;5.80;;;;;;;25.30;60.83;98088.75;6195857;28;20233;-41
2023/08/16 09:15:28;;;;;;;6.72;6.20;;;;;;;25.45;60.15;98098.28;6166555;28;20239;-44
2023/08/16 09:18:31;;;;;;;6.80;6.10;;;;;;;25.43;62.21;98089.66;6181449;28;20240;-42
2023/08/16 09:21:34;;;;;;;7.10;5.90;;;;;;;25.56;62.21;98080.41;6184730;28;20240;-43
2023/08/16 09:24:36;;;;;;;6.95;6.25;;;;;;;25.77;62.59;98099.59;6182895;28;20233;-44
2023/08/16 09:27:40;;;;;;;5.47;5.07;;;;;;;25.73;65.39;98099.41;6180462;28;20923;-44
2023/08/16 09:30:43;;;;;;;7.63;5.38;;;;;;;25.71;65.44;98106.31;6182869;28;20237;-44
2023/08/16 09:33:45;;;;;;;7.25;5.85;;;;;;;25.74;65.18;98109.19;6181912;28;20235;-42
2023/08/16 09:36:49;;;;;;;6.68;5.88;;;;;;;25.74;62.93;98094.75;6182365;28;20258;-42
2023/08/16 09:39:59;;;;;;;6.05;5.55;;;;;;;25.90;63.17;98097.72;6161772;28;20591;-41
2023/08/16 09:43:02;;;;;;;7.70;6.70;;;;;;;25.92;57.10;98093.56;6182810;28;20339;-41
2023/08/16 09:46:05;;;;;;;6.93;6.22;;;;;;;26.09;55.98;98091.81;6184014;28;20267;-43
2023/08/16 09:49:09;;;;;;;7.07;5.95;;;;;;;26.04;56.50;98078.34;6178682;28;20233;-43
2023/08/16 09:52:14;;;;;;;6.75;6.05;;;;;;;26.23;55.21;98084.94;6182136;28;20245;-44
2023/08/16 09:55:30;;;;;;;6.22;5.55;;;;;;;26.20;56.62;98073.88;6164831;28;20316;-42
2023/08/16 09:58:37;;;;;;;6.68;6.03;;;;;;;26.38;59.34;98085.47;6180751;28;20730;-44
2023/08/16 10:01:43;;;;;;;7.28;5.72;;;;;;;26.41;57.57;98088.34;6178303;28;20352;-43
2023/08/16 10:04:50;;;;;;;6.07;5.47;;;;;;;26.43;60.31;98088.00;6181825;28;20290;-42
2023/08/16 10:08:00;;;;;;;6.70;6.10;;;;;;;26.54;55.94;98089.19;6185057;28;20685;-42
2023/08/16 10:11:04;;;;;;;6.95;6.32;;;;;;;26.60;55.54;98082.41;6165036;28;20713;-42
2023/08/16 10:14:09;;;;;;;6.95;6.35;;;;;;;26.63;54.22;98081.69;6195972;28;20240;-43
2023/08/16 10:17:13;;;;;;;6.78;6.18;;;;;;;26.78;51.79;98080.25;6181219;28;20229;-41
2023/08/16 10:20:26;;;;;;;6.75;6.05;;;;;;;26.82;51.82;98078.44;6205132;28;20228;-43
2023/08/16 10:23:30;;;;;;;5.78;5.28;;;;;;;26.80;52.67;98069.81;6203147;28;20279;-42
2023/08/16 10:26:34;;;;;;;6.43;5.82;;;;;;;26.99;55.22;98074.72;6204777;28;20228;-44
2023/08/16 10:29:38;;;;;;;7.05;6.32;;;;;;;26.98;55.34;98062.97;6199117;28;20709;-43
2023/08/16 10:32:44;;;;;;;7.03;5.32;;;;;;;27.20;54.15;98066.47;6206856;28;20229;-44
2023/08/16 10:35:50;;;;;;;7.45;5.55;;;;;;;27.24;54.54;98070.09;6207167;28;20310;-41
2023/08/16 10:39:00;;;;;;;5.28;4.80;;;;;;;27.32;52.08;98062.91;6206397;28;20598;-41
2023/08/16 10:42:13;;;;;;;5.82;5.32;;;;;;;27.47;52.91;98063.00;6203773;28;20225;-43
2023/08/16 10:45:29;;;;;;;7.55;5.78;;;;;;;27.50;54.44;98059.59;6206094;28;20291;-42
2023/08/16 10:48:40;;;;;;;6.43;5.28;;;;;;;27.38;54.68;98054.13;6206908;28;20303;-45
2023/08/16 10:51:45;;;;;;;5.32;4.75;;;;;;;27.48;47.97;98045.44;6186690;28;20248;-41
2023/08/16 10:54:48;;;;;;;5.78;4.55;;;;;;;27.51;49.08;98052.97;6205144;28;20862;-41
2023/08/16 10:57:52;;;;;;;12.68;5.20;;;;;;;27.44;50.05;98039.09;6203680;28;20240;-42
2023/08/16 11:00:59;;;;;;;5.50;4.82;;;;;;;27.62;50.67;98056.03;6196508;28;20256;-46
2023/08/16 11:04:06;;;;;;;4.70;4.25;;;;;;;27.84;51.07;98049.31;6203590;28;20239;-46
2023/08/16 11:07:09;;;;;;;6.78;5.35;;;;;;;27.93;50.54;98047.25;6206536;28;20247;-45
2023/08/16 11:10:16;;;;;;;6.68;5.03;;;;;;;28.09;51.38;98062.94;6205001;28;20633;-47
2023/08/16 11:13:19;;;;;;;6.25;4.60;;;;;;;28.13;47.69;98052.84;6185109;28;20628;-44
2023/08/16 11:16:23;;;;;;;6.68;4.80;;;;;;;28.20;46.50;98047.59;6180210;28;20327;-48
2023/08/16 11:19:26;;;;;;;4.60;4.20;;;;;;;28.17;47.21;98046.31;6162148;28;20239;-48
2023/08/16 11:22:31;;;;;;;4.72;4.35;;;;;;;28.15;48.38;98036.88;6180586;28;20383;-50
2023/08/16 11:25:34;;;;;;;10.15;4.68;;;;;;;28.29;49.22;98061.94;6180109;28;20229;-45
2023/08/16 11:28:40;;;;;;;6.18;4.60;;;;;;;28.27;49.19;98054.06;6165016;28;20399;-47
2023/08/16 11:31:44;;;;;;;6.32;4.95;;;;;;;28.16;48.88;98044.75;6190704;28;20237;-45
2023/08/16 11:34:47;;;;;;;5.88;4.60;;;;;;;27.97;48.92;98050.84;6182897;28;20232;-47
2023/08/16 11:37:50;;;;;;;6.75;4.65;;;;;;;27.87;49.63;98029.44;6166012;28;20236;-49
2023/08/16 11:40:54;;;;;;;6.05;4.30;;;;;;;27.89;46.43;98029.91;6176236;28;20233;-45
2023/08/16 11:43:59;;;;;;;6.35;5.00;;;;;;;27.87;47.71;98043.13;6179155;28;20260;-44
2023/08/16 11:47:05;;;;;;;5.75;5.15;;;;;;;27.79;48.90;98035.88;6178982;28;20332;-46
2023/08/16 11:50:09;;;;;;;6.45;4.72;;;;;;;27.82;49.72;98032.41;6179557;28;20233;-47
2023/08/16 11:53:17;;;;;;;5.20;4.72;;;;;;;27.81;47.06;98024.56;6180343;28;20225;-48
2023/08/16 11:56:28;;;;;;;5.32;4.82;;;;;;;27.81;48.55;98033.56;6176755;28;20221;-49
2023/08/16 11:59:34;;;;;;;4.97;4.57;;;;;;;27.54;51.53;98010.47;6179511;28;20324;-45
2023/08/16 12:02:38;;;;;;;5.80;5.07;;;;;;;27.67;48.98;98019.41;6181768;28;20320;-44
2023/08/16 12:05:41;;;;;;;5.10;4.60;;;;;;;27.72;48.47;98011.00;6178528;28;20299;-48
2023/08/16 12:08:52;;;;;;;6.05;5.03;;;;;;;27.93;47.13;98016.28;6182246;28;20237;-44
2023/08/16 12:11:54;;;;;;;5.68;4.88;;;;;;;27.96;47.58;98008.19;6185702;28;20460;-44
2023/08/16 12:14:57;;;;;;;5.63;5.05;;;;;;;27.91;45.55;97996.69;6204364;28;20713;-45
2023/08/16 12:17:59;;;;;;;5.25;4.75;;;;;;;27.92;46.20;97990.06;6205460;28;20244;-49
2023/08/16 12:21:02;;;;;;;5.70;5.20;;;;;;;27.95;47.73;97986.63;6185551;28;20232;-46
2023/08/16 12:24:05;;;;;;;5.57;4.90;;;;;;;27.93;49.85;97986.16;6213190;28;20218;-45
2023/08/16 12:27:07;;;;;;;5.32;4.93;;;;;;;27.87;49.65;97984.81;6205715;28;20227;-47
2023/08/16 12:30:10;;;;;;;5.22;4.82;;;;;;;27.72;51.37;97980.88;6208264;28;20212;-48
2023/08/16 12:33:16;;;;;;;5.88;4.53;;;;;;;27.60;52.42;97978.16;6207561;28;20220;-47
2023/08/16 12:36:18;;;;;;;5.35;4.70;;;;;;;27.53;53.94;97968.59;6204512;28;20243;-46
2023/08/16 12:39:22;;;;;;;5.57;5.05;;;;;;;27.51;51.07;97965.41;6208336;28;20212;-44
2023/08/16 12:42:24;;;;;;;6.57;5.03;;;;;;;27.63;51.12;97971.97;6208200;28;20228;-46
2023/08/16 12:45:27;;;;;;;5.00;4.60;;;;;;;27.68;52.30;97955.31;6203336;28;20224;-46
2023/08/16 12:48:30;;;;;;;5.82;4.65;;;;;;;27.79;52.02;97961.94;6190616;28;20908;-44
2023/08/16 12:51:33;;;;;;;5.43;4.80;;;;;;;27.97;48.93;97965.16;6208006;28;20327;-44
2023/08/16 12:54:35;;;;;;;8.25;5.95;;;;;;;28.05;48.07;97961.47;6189819;28;20232;-45
2023/08/16 12:57:39;;;;;;;5.70;5.13;;;;;;;28.06;50.09;97948.56;6190812;28;20224;-45
2023/08/16 13:00:44;;;;;;;5.20;4.80;;;;;;;28.05;49.78;97956.00;6212098;28;20236;-46
2023/08/16 13:03:48;;;;;;;5.50;5.00;;;;;;;28.02;47.44;97954.75;6204971;28;20224;-48
2023/08/16 13:06:53;;;;;;;5.90;5.30;;;;;;;28.04;48.54;97943.47;6208266;28;20240;-47
2023/08/16 13:10:08;;;;;;;5.55;4.95;;;;;;;28.02;50.22;97943.00;6204938;28;20233;-46
2023/08/16 13:13:27;;;;;;;4.97;4.57;;;;;;;27.91;50.52;97934.50;6204246;28;20358;-46
2023/08/16 13:16:33;;;;;;;4.97;4.53;;;;;;;27.94;48.22;97936.53;6190497;28;20276;-46
2023/08/16 13:19:47;;;;;;;5.55;5.05;;;;;;;27.98;47.56;97939.34;6204866;28;20225;-43
2023/08/16 13:23:03;;;;;;;7.45;4.88;;;;;;;28.03;45.79;97930.91;6204139;28;20235;-47
2023/08/16 13:26:14;;;;;;;5.32;4.82;;;;;;;27.88;46.90;97910.56;6207076;28;20268;-46
2023/08/16 13:29:19;;;;;;;5.30;4.53;;;;;;;27.96;47.89;97936.97;6201835;28;20225;-45
2023/08/16 13:32:31;;;;;;;5.32;4.90;;;;;;;28.04;45.83;97937.97;6202524;28;20264;-46
2023/08/16 13:35:46;;;;;;;5.68;4.97;;;;;;;28.07;47.12;97937.25;6209511;28;20217;-45
2023/08/16 13:38:52;;;;;;;6.07;4.70;;;;;;;28.12;46.50;97942.47;6189781;28;20224;-45
2023/08/16 13:42:10;;;;;;;5.45;4.78;;;;;;;28.11;46.06;97945.59;6206262;28;20236;-45
2023/08/16 13:45:15;;;;;;;5.35;4.80;;;;;;;28.24;46.78;97949.84;6202721;28;20212;-44
2023/08/16 13:48:20;;;;;;;4.93;4.18;;;;;;;28.15;48.82;97952.75;6205997;28;20217;-45
2023/08/16 13:51:26;;;;;;;5.30;4.78;;;;;;;28.17;46.63;97960.59;6190826;28;20275;-45
2023/08/16 13:54:28;;;;;;;4.68;4.32;;;;;;;28.14;46.87;97953.09;6206108;28;20267;-45
2023/08/16 13:57:32;;;;;;;4.82;4.05;;;;;;;28.01;49.76;97935.94;6207214;28;20220;-45
2023/08/16 14:00:34;;;;;;;5.53;4.53;;;;;;;27.94;51.30;97947.50;6205136;28;20315;-47
2023/08/16 14:03:37;;;;;;;4.32;3.92;;;;;;;27.74;51.66;97938.34;6210653;28;20239;-48
2023/08/16 14:06:41;;;;;;;4.95;4.47;;;;;;;27.64;52.38;97927.06;6207306;28;20875;-46
2023/08/16 14:09:43;;;;;;;5.10;4.38;;;;;;;27.74;52.72;97940.28;6204932;28;20232;-47
2023/08/16 14:12:45;;;;;;;5.32;4.30;;;;;;;27.74;51.15;97937.56;6206132;28;20232;-46
2023/08/16 14:16:14;;;;;;;6.28;4.60;;;;;;;27.74;49.30;97932.06;6187715;28;20251;-45
2023/08/16 14:19:16;;;;;;;5.28;4.15;;;;;;;27.79;49.48;97945.50;6204553;28;20303;-45
2023/08/16 14:22:19;;;;;;;5.25;4.80;;;;;;;27.84;49.29;97953.47;6202857;28;20239;-46
2023/08/16 14:25:22;;;;;;;5.53;4.45;;;;;;;27.81;50.19;97956.91;6204429;28;20232;-44
2023/08/16 14:28:28;;;;;;;4.55;4.15;;;;;;;27.70;51.93;97948.38;6204665;28;20618;-47
2023/08/16 14:31:32;;;;;;;4.93;4.43;;;;;;;27.58;53.64;97950.31;6207046;28;20228;-45